Rockford, Washington
Current Conditions -  °F | °C
As of 4:53 PM on Friday 24 Oct 2014 (Local Time) from KSFF Reporting Station
Scattered Clouds Scattered Clouds  
Wind Chill: 54°   Ceiling: Unl
Heat Index: 54°   Visibility: 10mi
Dew Point: 44°   Wind: 3mph
Humidity: 69%   Direction: 10°N
Pressure: 30.04"   Gusts: NA
Location:  47.45°N, 117.13°W
Report Text: KSFF 242353Z 01003KT 10SM FEW045 SCT120 12/07 A3004 RMK AO2 SLP174 T01220067 10139 20106 58008
Loading
Personal Weather Stations






























Interactive Weather Map New forecast layout! Learn more

10-Day Weather Forecast

Advertisements
Track Severe Weather on mobile